Time;durP1;ratioP1;P1;durP2;ratioP2;P2;SDS_P1;SDS_P2;PMS_P1;PMS_P2;Temp;Humidity;BMP_temperature;BMP_pressure;BME280_temperature;BME280_humidity;BME280_pressure;Samples;Min_cycle;Max_cycle;Signal;HPM_P1;HPM_P2
2020/12/03 00:02:14;;;;;;;91.63;37.53;;;;;;;-1.49;85.25;100596.84;5095684;28;20231;-63
2020/12/03 00:04:42;;;;;;;98.60;38.60;;;;;;;-1.42;85.93;100594.13;5097131;28;20303;-60
2020/12/03 00:07:09;;;;;;;93.47;36.92;;;;;;;-1.33;85.05;100586.44;5095196;28;20232;-59
2020/12/03 00:09:35;;;;;;;95.18;37.50;;;;;;;-1.13;84.79;100584.72;5086414;28;20205;-56
2020/12/03 00:12:02;;;;;;;94.55;36.10;;;;;;;-1.27;85.02;100584.41;5070667;28;20235;-61
2020/12/03 00:14:28;;;;;;;88.80;36.08;;;;;;;-1.31;86.00;100586.53;5056272;28;20260;-61
2020/12/03 00:16:58;;;;;;;97.15;38.75;;;;;;;-1.26;85.38;100590.38;5057659;28;20228;-61
2020/12/03 00:19:26;;;;;;;88.85;36.72;;;;;;;-1.42;85.72;100588.16;5076443;28;20224;-61
2020/12/03 00:21:58;;;;;;;88.88;36.45;;;;;;;-1.31;85.57;100586.53;5074932;28;20604;-61
2020/12/03 00:24:26;;;;;;;92.22;35.70;;;;;;;-1.40;85.57;100579.03;5076515;28;20221;-61
2020/12/03 00:26:53;;;;;;;94.30;37.92;;;;;;;-1.42;85.95;100573.88;5075068;28;20276;-62
2020/12/03 00:29:21;;;;;;;85.43;36.58;;;;;;;-1.43;85.75;100566.13;5076559;28;20193;-62
2020/12/03 00:31:49;;;;;;;96.13;35.45;;;;;;;-1.32;85.92;100562.91;5059722;28;20250;-61
2020/12/03 00:34:17;;;;;;;81.85;35.22;;;;;;;-1.30;85.02;100561.38;5096292;28;20584;-59
2020/12/03 00:36:44;;;;;;;92.95;36.97;;;;;;;-1.30;84.93;100553.78;5094857;28;20196;-58
2020/12/03 00:39:16;;;;;;;90.80;34.85;;;;;;;-1.30;85.66;100548.72;5096622;28;20515;-62
2020/12/03 00:41:48;;;;;;;91.78;36.92;;;;;;;-1.33;85.36;100552.63;5094735;28;20303;-62
2020/12/03 00:44:15;;;;;;;83.97;35.28;;;;;;;-1.27;84.91;100540.50;5096193;28;20311;-62
2020/12/03 00:46:42;;;;;;;94.10;37.47;;;;;;;-1.37;85.54;100541.34;5076601;28;20208;-58
2020/12/03 00:49:09;;;;;;;98.55;36.53;;;;;;;-1.29;84.96;100540.34;5055944;28;20561;-60
2020/12/03 00:51:36;;;;;;;88.05;35.25;;;;;;;-1.18;84.97;100533.66;5054675;28;20684;-62
2020/12/03 00:54:03;;;;;;;89.68;35.03;;;;;;;-1.42;85.42;100522.34;5075746;28;20232;-61
2020/12/03 00:56:29;;;;;;;91.15;37.83;;;;;;;-1.31;85.22;100514.03;5076090;28;20201;-61
2020/12/03 00:58:56;;;;;;;82.03;33.22;;;;;;;-1.42;85.78;100512.22;5073561;28;20285;-58
2020/12/03 01:01:22;;;;;;;93.95;37.47;;;;;;;-1.36;85.71;100497.56;5073749;28;20229;-62
2020/12/03 01:03:50;;;;;;;91.47;36.33;;;;;;;-1.46;85.87;100507.63;5074068;28;20315;-61
2020/12/03 01:06:17;;;;;;;99.05;37.03;;;;;;;-1.30;85.66;100497.19;5075549;28;20287;-61
2020/12/03 01:08:45;;;;;;;83.63;35.65;;;;;;;-1.36;85.62;100489.97;5074548;28;20537;-61
2020/12/03 01:11:12;;;;;;;97.97;37.63;;;;;;;-1.39;85.83;100488.06;5076063;28;20239;-62
2020/12/03 01:13:38;;;;;;;88.53;36.88;;;;;;;-1.45;86.30;100486.66;5073587;28;20546;-62
2020/12/03 01:16:05;;;;;;;95.90;38.10;;;;;;;-1.45;85.77;100487.53;5074981;28;20205;-62
2020/12/03 01:18:31;;;;;;;97.45;36.53;;;;;;;-1.37;85.41;100484.00;5074408;28;20308;-61
2020/12/03 01:20:58;;;;;;;91.35;36.22;;;;;;;-1.34;85.91;100483.38;5075976;28;20200;-61
2020/12/03 01:23:25;;;;;;;84.20;35.08;;;;;;;-1.37;85.84;100470.47;5074286;28;20263;-58
2020/12/03 01:25:53;;;;;;;90.65;37.30;;;;;;;-1.22;85.35;100465.81;5075552;28;20204;-60
2020/12/03 01:28:19;;;;;;;90.30;36.42;;;;;;;-1.40;86.11;100466.03;5073953;28;20307;-62
2020/12/03 01:30:46;;;;;;;92.55;38.03;;;;;;;-1.39;86.24;100461.88;5065528;28;20197;-58
2020/12/03 01:33:12;;;;;;;91.18;37.42;;;;;;;-1.31;85.82;100465.94;5081294;28;20240;-62
2020/12/03 01:35:39;;;;;;;88.78;35.30;;;;;;;-1.39;85.57;100472.00;5095229;28;20306;-60
2020/12/03 01:38:05;;;;;;;86.15;35.05;;;;;;;-1.41;86.34;100464.25;5094209;28;20239;-62
2020/12/03 01:40:32;;;;;;;94.32;34.35;;;;;;;-1.24;86.07;100472.38;5095928;28;20208;-59
2020/12/03 01:42:59;;;;;;;83.82;35.47;;;;;;;-1.34;86.41;100463.13;5094193;28;20323;-60
2020/12/03 01:45:45;;;;;;;95.20;36.50;;;;;;;-1.11;85.64;100464.19;5095297;28;20647;-62
2020/12/03 01:48:20;;;;;;;99.05;35.75;;;;;;;-1.11;85.24;100461.66;5090772;28;20231;-59
2020/12/03 01:50:47;;;;;;;92.00;36.05;;;;;;;-1.28;85.64;100458.56;5095997;28;20220;-57
2020/12/03 01:53:17;;;;;;;92.38;35.70;;;;;;;-1.31;86.06;100455.81;5094567;28;20263;-60
2020/12/03 01:55:43;;;;;;;88.00;35.33;;;;;;;-1.27;85.92;100450.22;5095150;28;20265;-62
2020/12/03 01:58:16;;;;;;;88.28;36.83;;;;;;;-1.28;85.91;100450.97;5093237;28;20259;-59
2020/12/03 02:00:43;;;;;;;97.68;38.35;;;;;;;-1.12;85.54;100439.63;5095385;28;20204;-62
2020/12/03 02:03:09;;;;;;;92.57;36.83;;;;;;;-1.15;85.74;100441.88;5092136;28;20240;-58
2020/12/03 02:05:36;;;;;;;89.65;35.70;;;;;;;-1.33;85.97;100439.59;5094727;28;20220;-58
2020/12/03 02:08:02;;;;;;;85.15;35.20;;;;;;;-1.23;85.94;100447.19;5093005;28;20243;-62
2020/12/03 02:10:29;;;;;;;92.97;35.35;;;;;;;-1.23;86.11;100437.06;5095349;28;20287;-61
2020/12/03 02:12:55;;;;;;;87.90;36.22;;;;;;;-1.19;85.49;100428.09;5077956;28;20643;-58
2020/12/03 02:15:22;;;;;;;96.72;36.20;;;;;;;-0.96;85.33;100419.84;5074399;28;20710;-63
2020/12/03 02:17:50;;;;;;;90.57;35.30;;;;;;;-1.05;84.62;100419.09;5062725;28;20243;-61
2020/12/03 02:20:20;;;;;;;93.15;36.13;;;;;;;-1.08;84.77;100411.25;5042842;28;20535;-58
2020/12/03 02:22:48;;;;;;;95.13;36.55;;;;;;;-1.00;84.80;100412.78;5045848;28;20245;-62
2020/12/03 02:25:15;;;;;;;90.63;35.90;;;;;;;-1.00;84.53;100411.88;5058308;28;20256;-61
2020/12/03 02:27:42;;;;;;;88.80;36.13;;;;;;;-1.03;84.44;100407.44;5057753;28;20237;-57
2020/12/03 02:30:11;;;;;;;82.68;34.47;;;;;;;-1.14;84.71;100398.06;5063767;28;20197;-62
2020/12/03 02:32:38;;;;;;;79.43;33.00;;;;;;;-1.07;84.54;100399.47;5085467;28;20315;-59
2020/12/03 02:35:07;;;;;;;85.82;36.00;;;;;;;-0.92;84.44;100399.84;5094062;28;20223;-63
2020/12/03 02:37:36;;;;;;;84.47;34.40;;;;;;;-0.89;83.55;100382.38;5055748;28;20258;-61
2020/12/03 02:40:03;;;;;;;83.05;31.95;;;;;;;-0.89;84.66;100374.75;5049065;28;20725;-62
2020/12/03 02:42:30;;;;;;;87.63;35.25;;;;;;;-1.00;83.94;100384.03;5050248;28;20241;-60
2020/12/03 02:44:57;;;;;;;72.70;31.27;;;;;;;-1.02;84.39;100370.38;5057627;28;20527;-61
2020/12/03 02:47:23;;;;;;;88.63;34.33;;;;;;;-1.13;84.53;100369.50;5056282;28;20624;-61
2020/12/03 02:49:51;;;;;;;92.03;34.80;;;;;;;-1.20;84.81;100369.72;5057608;28;20619;-62
2020/12/03 02:52:21;;;;;;;88.82;33.88;;;;;;;-1.16;85.04;100365.06;5056593;28;20244;-60
2020/12/03 02:54:49;;;;;;;80.70;32.40;;;;;;;-0.65;83.31;100364.84;5058001;28;20339;-60
2020/12/03 02:57:16;;;;;;;76.38;32.95;;;;;;;-0.99;83.62;100356.28;5056513;28;20696;-59
2020/12/03 02:59:43;;;;;;;79.78;32.80;;;;;;;-0.90;84.08;100357.81;5058411;28;20228;-62
2020/12/03 03:02:10;;;;;;;79.25;34.22;;;;;;;-0.87;83.83;100353.00;5056176;28;20700;-61
2020/12/03 03:04:36;;;;;;;75.13;33.28;;;;;;;-0.89;83.86;100344.38;5057925;28;20300;-63
2020/12/03 03:07:03;;;;;;;78.32;33.47;;;;;;;-0.87;83.56;100347.94;5056356;28;20598;-59
2020/12/03 03:09:30;;;;;;;79.70;34.05;;;;;;;-0.97;83.83;100337.03;5064585;28;20585;-63
2020/12/03 03:11:58;;;;;;;85.97;33.88;;;;;;;-0.80;83.67;100339.16;5079667;28;20231;-62
2020/12/03 03:14:24;;;;;;;74.57;32.90;;;;;;;-0.82;83.37;100336.53;5097683;28;20231;-59
2020/12/03 03:16:51;;;;;;;72.93;31.92;;;;;;;-0.91;83.48;100326.53;5094988;28;20241;-61
2020/12/03 03:19:18;;;;;;;73.18;31.10;;;;;;;-0.79;83.43;100321.56;5097957;28;20224;-60
2020/12/03 03:21:45;;;;;;;82.40;34.55;;;;;;;-0.84;83.44;100320.28;5096303;28;20291;-61
2020/12/03 03:24:11;;;;;;;84.40;34.60;;;;;;;-0.90;83.78;100317.25;5097424;28;20259;-62
2020/12/03 03:26:38;;;;;;;76.28;32.50;;;;;;;-1.05;84.07;100322.88;5095860;28;20214;-61
2020/12/03 03:29:06;;;;;;;92.03;35.38;;;;;;;-1.02;84.12;100317.16;5097601;28;20334;-63
2020/12/03 03:31:34;;;;;;;75.55;32.05;;;;;;;-1.17;84.33;100307.56;5080866;28;20197;-61
2020/12/03 03:34:01;;;;;;;78.50;32.55;;;;;;;-0.87;83.54;100312.47;5075747;28;20742;-62
2020/12/03 03:36:28;;;;;;;87.18;33.25;;;;;;;-0.93;83.74;100306.91;5077386;28;20236;-62
2020/12/03 03:38:54;;;;;;;74.25;29.60;;;;;;;-0.81;83.52;100302.81;5075577;28;20321;-62
2020/12/03 03:41:21;;;;;;;85.45;32.55;;;;;;;-1.02;83.84;100292.72;5077316;28;20626;-61
2020/12/03 03:43:48;;;;;;;76.55;33.47;;;;;;;-0.89;83.15;100293.69;5075789;28;20234;-60
2020/12/03 03:46:15;;;;;;;72.97;30.00;;;;;;;-1.06;83.83;100292.34;5076969;28;20201;-61
2020/12/03 03:48:42;;;;;;;71.07;31.48;;;;;;;-1.02;83.81;100267.38;5075634;28;20243;-62
2020/12/03 03:51:08;;;;;;;73.15;30.63;;;;;;;-0.98;83.41;100268.50;5077548;28;20510;-61
2020/12/03 03:53:35;;;;;;;75.70;31.00;;;;;;;-0.97;83.46;100268.66;5075602;28;20240;-60
2020/12/03 03:56:02;;;;;;;68.90;29.65;;;;;;;-0.83;83.58;100271.38;5076915;28;20204;-62
2020/12/03 03:58:28;;;;;;;83.20;31.30;;;;;;;-0.97;83.79;100262.72;5075472;28;20249;-62
2020/12/03 04:00:55;;;;;;;83.90;31.92;;;;;;;-1.07;84.10;100258.56;5077413;28;20308;-61
2020/12/03 04:03:23;;;;;;;88.70;32.75;;;;;;;-0.75;83.42;100247.56;5076361;28;20323;-61
2020/12/03 04:05:52;;;;;;;79.82;33.42;;;;;;;-0.91;84.07;100239.50;5076531;28;20208;-63
2020/12/03 04:08:19;;;;;;;76.80;32.47;;;;;;;-0.88;83.49;100229.63;5060179;28;20237;-58
2020/12/03 04:10:47;;;;;;;75.30;30.98;;;;;;;-0.83;82.69;100228.31;5057205;28;20201;-61
2020/12/03 04:13:14;;;;;;;75.85;32.92;;;;;;;-0.89;83.19;100230.38;5056282;28;20287;-61
2020/12/03 04:15:40;;;;;;;72.65;30.98;;;;;;;-0.92;83.16;100236.06;5075308;28;20267;-62
2020/12/03 04:18:07;;;;;;;80.63;33.13;;;;;;;-0.77;82.80;100230.47;5075368;28;20271;-60
2020/12/03 04:20:35;;;;;;;79.43;32.97;;;;;;;-0.90;82.98;100231.13;5076967;28;20319;-63
2020/12/03 04:23:01;;;;;;;76.40;33.05;;;;;;;-0.92;82.87;100237.75;5070179;28;20643;-63
2020/12/03 04:25:28;;;;;;;84.93;32.80;;;;;;;-0.93;83.95;100235.97;5076631;28;20522;-61
2020/12/03 04:27:54;;;;;;;71.25;29.92;;;;;;;-1.16;83.48;100235.00;5075365;28;20240;-61
2020/12/03 04:30:21;;;;;;;79.35;31.95;;;;;;;-1.05;83.75;100226.63;5076880;28;20196;-61
2020/12/03 04:32:47;;;;;;;76.70;30.67;;;;;;;-1.08;83.34;100221.31;5075345;28;20248;-63
2020/12/03 04:35:17;;;;;;;79.65;32.35;;;;;;;-0.96;83.05;100219.75;5076240;28;20647;-62
2020/12/03 04:37:46;;;;;;;73.93;31.25;;;;;;;-0.99;83.32;100217.00;5075279;28;20244;-62
2020/12/03 04:40:23;;;;;;;81.53;32.42;;;;;;;-1.00;83.25;100219.41;5076149;28;20582;-62
2020/12/03 04:42:50;;;;;;;76.32;33.60;;;;;;;-1.02;83.05;100216.72;5074931;28;20326;-59
2020/12/03 04:45:31;;;;;;;77.32;34.13;;;;;;;-0.99;82.82;100218.63;5076216;28;20221;-62
2020/12/03 04:48:10;;;;;;;72.05;30.88;;;;;;;-1.03;83.62;100214.97;5075159;28;20242;-60
2020/12/03 04:50:43;;;;;;;79.30;32.30;;;;;;;-0.92;82.98;100213.28;5076043;28;20232;-60
2020/12/03 04:53:37;;;;;;;77.50;31.42;;;;;;;-0.84;82.82;100209.72;5075032;28;20236;-61
2020/12/03 04:56:06;;;;;;;63.85;26.23;;;;;;;-0.97;82.56;100200.25;5076086;28;20212;-59
2020/12/03 04:58:39;;;;;;;78.18;32.03;;;;;;;-1.13;83.76;100203.22;5074463;28;20240;-62
2020/12/03 05:01:13;;;;;;;73.22;30.85;;;;;;;-1.07;83.59;100202.84;5076260;28;20232;-60
2020/12/03 05:04:00;;;;;;;70.68;30.23;;;;;;;-1.28;84.58;100194.41;5075533;28;20232;-63
2020/12/03 05:06:35;;;;;;;76.90;32.15;;;;;;;-1.19;83.96;100189.22;5076374;28;20207;-60
2020/12/03 05:09:07;;;;;;;79.40;31.15;;;;;;;-1.05;83.71;100185.22;5075657;28;20254;-61
2020/12/03 05:11:38;;;;;;;71.53;29.02;;;;;;;-1.16;83.96;100176.78;5076385;28;20204;-62
2020/12/03 05:14:12;;;;;;;75.57;30.58;;;;;;;-1.12;83.50;100176.25;5072692;28;20545;-62
2020/12/03 05:16:46;;;;;;;72.45;31.20;;;;;;;-1.18;83.95;100180.84;5074155;28;20284;-61
2020/12/03 05:19:15;;;;;;;80.30;32.42;;;;;;;-1.12;84.15;100178.78;5076099;28;20229;-62
2020/12/03 05:21:45;;;;;;;76.18;31.83;;;;;;;-0.88;83.20;100173.91;5075106;28;20196;-62
2020/12/03 05:24:12;;;;;;;69.22;30.13;;;;;;;-0.92;83.16;100162.63;5075531;28;20225;-60
2020/12/03 05:26:39;;;;;;;74.15;30.88;;;;;;;-1.08;83.51;100160.53;5074570;28;20208;-63
2020/12/03 05:29:09;;;;;;;76.10;31.38;;;;;;;-1.02;84.18;100155.09;5075843;28;20232;-60
2020/12/03 05:31:39;;;;;;;79.78;31.40;;;;;;;-0.95;83.20;100157.31;5074849;28;20200;-61
2020/12/03 05:34:09;;;;;;;75.43;30.45;;;;;;;-0.84;82.75;100160.69;5075419;28;20271;-61
2020/12/03 05:36:39;;;;;;;77.53;30.13;;;;;;;-1.08;83.40;100155.47;5074994;28;20227;-61
2020/12/03 05:39:09;;;;;;;73.53;31.60;;;;;;;-1.14;83.70;100157.50;5075800;28;20233;-60
2020/12/03 05:41:41;;;;;;;70.75;28.98;;;;;;;-1.02;83.11;100152.56;5074553;28;20197;-62
2020/12/03 05:44:21;;;;;;;73.95;33.03;;;;;;;-1.01;83.36;100142.56;5075320;28;20677;-60
2020/12/03 05:46:50;;;;;;;76.00;29.50;;;;;;;-0.96;83.24;100146.28;5074509;28;20215;-60
2020/12/03 05:49:20;;;;;;;72.00;31.05;;;;;;;-1.03;83.07;100133.91;5076054;28;20283;-60
2020/12/03 05:51:47;;;;;;;78.50;31.05;;;;;;;-1.10;83.35;100132.59;5075390;28;20201;-63
2020/12/03 05:54:13;;;;;;;84.72;34.10;;;;;;;-0.99;83.19;100138.47;5079152;28;20232;-61
2020/12/03 05:56:50;;;;;;;68.15;27.13;;;;;;;-1.11;83.79;100129.91;5078259;28;20211;-61
2020/12/03 05:59:18;;;;;;;60.13;25.35;;;;;;;-1.13;83.61;100128.94;5079779;28;20197;-61
2020/12/03 06:02:09;;;;;;;73.45;29.42;;;;;;;-0.96;83.37;100127.69;5078580;28;20203;-60
2020/12/03 06:04:42;;;;;;;81.97;29.80;;;;;;;-1.09;83.56;100118.25;5078949;28;20644;-61
2020/12/03 06:07:47;;;;;;;74.20;30.88;;;;;;;-1.11;83.75;100127.38;5077997;28;20317;-63
2020/12/03 06:10:28;;;;;;;73.25;27.58;;;;;;;-1.14;84.01;100124.59;5071203;28;20250;-60
2020/12/03 06:13:11;;;;;;;82.10;31.33;;;;;;;-1.13;84.53;100111.19;5077486;28;20671;-62
2020/12/03 06:15:44;;;;;;;79.90;31.90;;;;;;;-0.90;84.00;100107.91;5078310;28;20319;-61
2020/12/03 06:18:27;;;;;;;73.40;32.30;;;;;;;-0.98;84.30;100112.38;5077554;28;20264;-59
2020/12/03 06:21:09;;;;;;;71.85;30.35;;;;;;;-1.01;83.81;100117.22;5079103;28;20315;-61
2020/12/03 06:23:44;;;;;;;72.55;30.48;;;;;;;-0.98;83.58;100107.31;5077628;28;20236;-62
2020/12/03 06:26:24;;;;;;;74.43;30.85;;;;;;;-1.03;84.14;100103.53;5079057;28;20192;-63
2020/12/03 06:29:03;;;;;;;70.38;29.58;;;;;;;-1.19;84.46;100100.59;5077282;28;20332;-62
2020/12/03 06:31:32;;;;;;;87.97;34.60;;;;;;;-1.05;83.92;100094.94;5078942;28;20200;-61
2020/12/03 06:34:18;;;;;;;77.90;32.00;;;;;;;-0.97;84.32;100095.53;5078193;28;20259;-62
2020/12/03 06:36:48;;;;;;;78.45;29.92;;;;;;;-1.23;84.14;100089.34;5077758;28;20342;-60
2020/12/03 06:39:23;;;;;;;70.03;29.98;;;;;;;-1.01;84.03;100079.22;5078759;28;20238;-61
2020/12/03 06:41:52;;;;;;;76.35;32.55;;;;;;;-1.09;84.00;100070.13;5077056;28;20258;-62
2020/12/03 06:44:23;;;;;;;79.60;32.55;;;;;;;-1.04;83.90;100075.59;5078091;28;20220;-60
2020/12/03 06:47:14;;;;;;;75.00;29.63;;;;;;;-1.03;84.01;100068.09;5077226;28;20223;-61
2020/12/03 06:49:50;;;;;;;76.78;31.10;;;;;;;-0.99;84.13;100065.03;5078761;28;20300;-61
2020/12/03 06:52:31;;;;;;;69.80;29.23;;;;;;;-0.93;83.96;100068.81;5076592;28;20239;-60
2020/12/03 06:55:09;;;;;;;76.10;29.55;;;;;;;-1.16;84.12;100068.78;5077977;28;20307;-60
2020/12/03 06:58:08;;;;;;;81.32;31.30;;;;;;;-0.91;84.23;100068.16;5076793;28;20240;-62
2020/12/03 07:01:08;;;;;;;76.10;30.33;;;;;;;-0.83;83.20;100063.66;5078529;28;20235;-62
2020/12/03 07:03:59;;;;;;;73.13;31.23;;;;;;;-0.93;83.89;100053.59;5063311;28;20240;-63
2020/12/03 07:07:00;;;;;;;67.60;28.25;;;;;;;-1.05;84.70;100056.97;5078733;28;20552;-60
2020/12/03 07:09:42;;;;;;;65.75;25.83;;;;;;;-1.12;84.58;100052.19;5077906;28;20295;-61
2020/12/03 07:12:22;;;;;;;82.40;31.58;;;;;;;-1.06;85.70;100052.66;5076947;28;20605;-62
2020/12/03 07:15:18;;;;;;;74.85;30.80;;;;;;;-1.06;84.99;100056.84;5077707;28;20260;-62
2020/12/03 07:18:22;;;;;;;71.75;29.83;;;;;;;-0.92;84.58;100048.63;5076744;28;20324;-60
2020/12/03 07:21:07;;;;;;;78.18;30.30;;;;;;;-0.72;83.74;100052.69;5078096;28;20220;-62
2020/12/03 07:23:39;;;;;;;72.07;31.40;;;;;;;-0.97;84.39;100044.88;5056653;28;20260;-61
2020/12/03 07:26:15;;;;;;;80.35;29.80;;;;;;;-1.23;85.01;100043.78;5057605;28;20206;-59
2020/12/03 07:28:45;;;;;;;77.25;31.05;;;;;;;-1.11;85.29;100053.94;5056463;28;20276;-61
2020/12/03 07:31:18;;;;;;;74.90;28.95;;;;;;;-1.01;84.43;100050.47;5058103;28;20197;-63
2020/12/03 07:34:04;;;;;;;72.07;32.50;;;;;;;-1.09;85.13;100044.81;5056344;28;20267;-62
2020/12/03 07:36:36;;;;;;;76.85;31.17;;;;;;;-1.11;84.77;100043.81;5057831;28;20232;-60
2020/12/03 07:39:06;;;;;;;86.28;34.20;;;;;;;-0.99;84.82;100038.81;5057113;28;20230;-60
2020/12/03 07:41:46;;;;;;;79.90;32.25;;;;;;;-1.03;84.57;100032.63;5056029;28;20231;-63
2020/12/03 07:44:34;;;;;;;76.35;29.55;;;;;;;-0.97;84.60;100033.09;5057152;28;20247;-60
2020/12/03 07:47:24;;;;;;;73.30;30.30;;;;;;;-0.92;85.11;100030.91;5055482;28;20232;-62
2020/12/03 07:49:52;;;;;;;78.10;30.10;;;;;;;-0.90;84.44;100029.38;5057287;28;20196;-61
2020/12/03 07:52:26;;;;;;;72.63;29.02;;;;;;;-0.85;84.18;100024.66;5056124;28;20236;-58
2020/12/03 07:54:52;;;;;;;73.82;32.42;;;;;;;-0.91;84.50;100016.59;5056814;28;20303;-60
2020/12/03 07:57:41;;;;;;;72.75;29.33;;;;;;;-0.91;83.74;100017.50;5055926;28;20636;-63
2020/12/03 08:00:35;;;;;;;70.82;31.08;;;;;;;-0.99;84.33;99999.19;5057267;28;20531;-61
2020/12/03 08:03:03;;;;;;;77.20;31.25;;;;;;;-0.88;84.74;99994.06;5055612;28;20321;-60
2020/12/03 08:05:54;;;;;;;71.05;30.95;;;;;;;-0.99;84.55;99983.97;5056746;28;20308;-60
2020/12/03 08:08:29;;;;;;;76.72;31.48;;;;;;;-1.05;85.36;99982.63;5049375;28;20256;-63
2020/12/03 08:10:57;;;;;;;78.63;31.42;;;;;;;-1.26;85.55;99978.59;5077233;28;20200;-58
2020/12/03 08:13:29;;;;;;;73.63;29.95;;;;;;;-1.11;85.47;99976.34;5075370;28;20271;-62
2020/12/03 08:16:03;;;;;;;74.65;30.50;;;;;;;-1.04;85.87;99969.22;5075313;28;20200;-63
2020/12/03 08:18:35;;;;;;;87.88;32.47;;;;;;;-1.07;84.91;99969.88;5075136;28;20719;-61
2020/12/03 08:21:01;;;;;;;78.93;31.90;;;;;;;-1.07;85.27;99969.88;5076912;28;20256;-62
2020/12/03 08:23:28;;;;;;;69.13;25.35;;;;;;;-1.15;84.87;99960.78;5075337;28;20323;-59
2020/12/03 08:25:55;;;;;;;82.00;32.08;;;;;;;-1.12;84.78;99963.56;5076368;28;20246;-61
2020/12/03 08:28:25;;;;;;;69.30;29.40;;;;;;;-0.94;84.79;99960.66;5075452;28;20264;-61
2020/12/03 08:30:52;;;;;;;74.35;29.30;;;;;;;-1.24;85.16;99961.84;5076652;28;20236;-60
2020/12/03 08:33:26;;;;;;;82.13;31.85;;;;;;;-1.05;84.95;99957.28;5075301;28;20236;-62
2020/12/03 08:35:54;;;;;;;79.55;29.88;;;;;;;-1.06;84.83;99956.44;5076202;28;20210;-58
2020/12/03 08:38:24;;;;;;;79.90;31.60;;;;;;;-0.96;84.52;99947.88;5073623;28;20244;-54
2020/12/03 08:40:52;;;;;;;74.15;30.48;;;;;;;-1.11;84.88;99945.06;5076038;28;20221;-60
2020/12/03 08:43:19;;;;;;;73.50;30.58;;;;;;;-1.12;84.87;99940.78;5079967;28;20232;-60
2020/12/03 08:45:54;;;;;;;72.78;30.00;;;;;;;-1.10;85.23;99929.09;5096003;28;20831;-56
2020/12/03 08:48:27;;;;;;;73.97;31.15;;;;;;;-1.09;85.21;99923.25;5093840;28;20231;-59
2020/12/03 08:50:58;;;;;;;74.18;27.63;;;;;;;-1.10;85.14;99919.88;5096361;28;20287;-52
2020/12/03 08:53:27;;;;;;;90.95;31.40;;;;;;;-1.04;84.57;99909.31;5085785;28;20631;-57
2020/12/03 08:55:56;;;;;;;70.82;29.67;;;;;;;-0.96;84.41;99923.41;5095121;28;20243;-60
2020/12/03 08:58:23;;;;;;;74.13;30.15;;;;;;;-1.14;84.87;99922.03;5094807;28;20251;-57
2020/12/03 09:00:51;;;;;;;81.45;31.55;;;;;;;-1.22;85.23;99924.88;5096163;28;20228;-59
2020/12/03 09:03:21;;;;;;;74.43;29.95;;;;;;;-1.17;85.11;99926.88;5094775;28;20672;-57
2020/12/03 09:05:50;;;;;;;75.72;30.33;;;;;;;-1.11;85.16;99919.75;5095642;28;20234;-57
2020/12/03 09:08:19;;;;;;;78.28;31.42;;;;;;;-1.15;85.20;99911.03;5094610;28;20276;-58
2020/12/03 09:10:48;;;;;;;87.43;31.48;;;;;;;-1.26;85.51;99909.34;5096005;28;20204;-59
2020/12/03 09:13:20;;;;;;;79.63;31.92;;;;;;;-1.11;85.47;99904.56;5094339;28;20318;-56
2020/12/03 09:15:53;;;;;;;77.80;30.00;;;;;;;-1.08;84.85;99907.31;5090426;28;20203;-57
2020/12/03 09:18:20;;;;;;;75.03;31.48;;;;;;;-1.00;85.00;99902.81;5093739;28;20583;-60
2020/12/03 09:20:47;;;;;;;78.95;29.58;;;;;;;-1.06;84.97;99912.50;5095754;28;20737;-55
2020/12/03 09:23:16;;;;;;;77.63;30.15;;;;;;;-1.03;85.08;99918.66;5094060;28;20314;-56
2020/12/03 09:25:43;;;;;;;72.95;29.98;;;;;;;-1.01;84.60;99924.75;5095592;28;20643;-53
2020/12/03 09:28:09;;;;;;;82.70;31.77;;;;;;;-1.04;84.71;99911.84;5094235;28;20343;-58
2020/12/03 09:30:40;;;;;;;78.38;31.40;;;;;;;-0.96;84.75;99925.09;5096076;28;20296;-54
2020/12/03 09:33:09;;;;;;;69.45;28.63;;;;;;;-1.00;84.43;99911.31;5093780;28;20239;-53
2020/12/03 09:35:36;;;;;;;84.07;31.45;;;;;;;-0.99;85.12;99907.09;5095311;28;20243;-53
2020/12/03 09:38:06;;;;;;;73.75;31.98;;;;;;;-0.84;84.49;99909.91;5094221;28;20227;-57
2020/12/03 09:40:33;;;;;;;81.20;32.78;;;;;;;-1.02;85.05;99909.44;5095925;28;20616;-57
2020/12/03 09:43:01;;;;;;;76.50;30.15;;;;;;;-0.92;84.63;99913.53;5094497;28;20258;-59
2020/12/03 09:45:32;;;;;;;67.68;28.17;;;;;;;-0.89;84.40;99909.56;5095698;28;20231;-53
2020/12/03 09:47:59;;;;;;;77.07;32.00;;;;;;;-0.80;84.77;99908.47;5094406;28;20613;-58
2020/12/03 09:50:25;;;;;;;47.30;20.50;;;;;;;-1.03;85.04;99900.94;5095531;28;20599;-55
2020/12/03 09:52:54;;;;;;;76.43;30.73;;;;;;;-1.10;84.94;99891.13;5094325;28;20267;-56
2020/12/03 09:55:21;;;;;;;74.70;29.58;;;;;;;-0.98;85.04;99893.66;5095425;28;20254;-52
2020/12/03 09:57:55;;;;;;;71.25;29.23;;;;;;;-0.87;84.73;99881.81;5094344;28;20274;-57
2020/12/03 10:00:26;;;;;;;73.57;30.00;;;;;;;-0.78;84.05;99872.34;5094916;28;20597;-56
2020/12/03 10:03:37;;;;;;;76.90;31.13;;;;;;;-0.76;84.49;99873.38;5094320;28;20240;-58
2020/12/03 10:06:08;;;;;;;78.63;29.85;;;;;;;-0.66;84.00;99866.41;5095422;28;20210;-55
2020/12/03 10:09:04;;;;;;;81.60;30.45;;;;;;;-0.78;84.31;99857.16;5093625;28;20322;-53
2020/12/03 10:11:43;;;;;;;74.53;30.63;;;;;;;-0.86;84.61;99853.19;5095520;28;20211;-54
2020/12/03 10:14:39;;;;;;;66.72;28.95;;;;;;;-0.72;84.12;99847.47;5094694;28;20410;-56
2020/12/03 10:17:07;;;;;;;85.07;31.60;;;;;;;-0.69;84.25;99842.63;5094017;28;20610;-54
2020/12/03 10:19:37;;;;;;;72.35;29.15;;;;;;;-0.66;84.36;99831.84;5095444;28;20204;-57
2020/12/03 10:22:05;;;;;;;72.97;29.77;;;;;;;-0.58;83.84;99835.78;5094334;28;20236;-56
2020/12/03 10:24:37;;;;;;;70.47;28.85;;;;;;;-0.60;83.51;99827.22;5094818;28;20312;-55
2020/12/03 10:27:10;;;;;;;68.72;27.25;;;;;;;-0.48;83.23;99827.19;5094002;28;20231;-56
2020/12/03 10:29:45;;;;;;;70.63;27.80;;;;;;;-0.58;83.34;99819.69;5095557;28;20242;-56
2020/12/03 10:32:14;;;;;;;71.07;28.33;;;;;;;-0.63;83.61;99818.47;5094208;28;20310;-50
2020/12/03 10:34:42;;;;;;;68.07;26.60;;;;;;;-0.40;83.35;99810.00;5094777;28;20631;-51
2020/12/03 10:37:24;;;;;;;72.95;29.58;;;;;;;-0.39;83.05;99805.78;5093813;28;20232;-58
2020/12/03 10:39:53;;;;;;;61.30;27.27;;;;;;;-0.53;83.33;99805.69;5097686;28;20283;-56
2020/12/03 10:42:20;;;;;;;68.72;28.75;;;;;;;-0.57;83.72;99813.84;5097372;28;20259;-57
2020/12/03 10:44:49;;;;;;;74.15;29.05;;;;;;;-0.50;83.24;99798.34;5097923;28;20311;-63
2020/12/03 10:47:17;;;;;;;64.47;26.58;;;;;;;-0.55;83.54;99802.19;5096949;28;20314;-61
2020/12/03 10:49:45;;;;;;;65.68;26.67;;;;;;;-0.61;83.50;99795.00;5098760;28;20196;-60
2020/12/03 10:52:11;;;;;;;63.35;26.98;;;;;;;-0.55;83.40;99776.84;5097091;28;20311;-59
2020/12/03 10:54:38;;;;;;;69.93;30.20;;;;;;;-0.54;83.62;99781.13;5097933;28;20224;-56
2020/12/03 10:57:13;;;;;;;65.38;28.48;;;;;;;-0.48;83.64;99779.03;5096810;28;20243;-60
2020/12/03 10:59:41;;;;;;;65.50;26.88;;;;;;;-0.51;83.87;99771.19;5098757;28;20204;-63
2020/12/03 11:02:22;;;;;;;59.75;26.30;;;;;;;-0.54;83.43;99765.94;5096884;28;20654;-61
2020/12/03 11:04:50;;;;;;;66.95;28.55;;;;;;;-0.45;83.84;99753.03;5098669;28;20216;-61
2020/12/03 11:07:17;;;;;;;67.60;28.38;;;;;;;-0.46;83.41;99744.53;5096246;28;20542;-58
2020/12/03 11:09:50;;;;;;;67.63;29.08;;;;;;;-0.22;83.00;99754.59;5098776;28;20294;-61
2020/12/03 11:12:17;;;;;;;65.65;29.08;;;;;;;-0.14;82.20;99742.47;5096854;28;20260;-62
2020/12/03 11:14:45;;;;;;;66.85;28.15;;;;;;;-0.17;82.06;99738.06;5097706;28;20238;-61
2020/12/03 11:17:41;;;;;;;65.90;27.95;;;;;;;-0.38;83.03;99736.56;5096606;28;20331;-59
2020/12/03 11:20:30;;;;;;;68.20;27.42;;;;;;;-0.25;82.77;99736.66;5098398;28;20234;-62
2020/12/03 11:23:06;;;;;;;71.60;28.15;;;;;;;-0.32;83.10;99737.88;5096408;28;20270;-61
2020/12/03 11:25:33;;;;;;;66.63;26.48;;;;;;;-0.24;82.45;99729.94;5098232;28;20258;-60
2020/12/03 11:28:12;;;;;;;70.18;28.30;;;;;;;-0.27;82.73;99725.53;5096523;28;20263;-60
2020/12/03 11:30:38;;;;;;;68.38;28.50;;;;;;;-0.29;83.03;99722.00;5098034;28;20294;-57
2020/12/03 11:33:06;;;;;;;61.33;26.80;;;;;;;-0.16;82.27;99722.06;5096314;28;20717;-60